sensor_id;sensor_type;location;lat;lon;timestamp;P1;durP1;ratioP1;P2;durP2;ratioP2
22786;SDS011;63134;52.020;4.714;2023-02-04T00:00:52;50.35;;;6.78;;
22786;SDS011;63134;52.020;4.714;2023-02-04T00:03:37;53.28;;;7.85;;
22786;SDS011;63134;52.020;4.714;2023-02-04T00:06:23;51.30;;;7.25;;
22786;SDS011;63134;52.020;4.714;2023-02-04T00:09:08;61.17;;;9.20;;
22786;SDS011;63134;52.020;4.714;2023-02-04T00:12:01;48.88;;;7.03;;
22786;SDS011;63134;52.020;4.714;2023-02-04T00:14:47;59.22;;;8.15;;
22786;SDS011;63134;52.020;4.714;2023-02-04T00:17:32;50.88;;;8.13;;
22786;SDS011;63134;52.020;4.714;2023-02-04T00:20:18;60.13;;;7.32;;
22786;SDS011;63134;52.020;4.714;2023-02-04T00:23:06;58.72;;;8.32;;
22786;SDS011;63134;52.020;4.714;2023-02-04T00:25:51;62.20;;;8.98;;
22786;SDS011;63134;52.020;4.714;2023-02-04T00:28:37;58.17;;;7.78;;
22786;SDS011;63134;52.020;4.714;2023-02-04T00:31:22;63.17;;;8.40;;
22786;SDS011;63134;52.020;4.714;2023-02-04T00:34:11;59.58;;;8.40;;
22786;SDS011;63134;52.020;4.714;2023-02-04T00:36:56;58.53;;;8.73;;
22786;SDS011;63134;52.020;4.714;2023-02-04T00:39:42;50.78;;;7.28;;
22786;SDS011;63134;52.020;4.714;2023-02-04T00:42:27;61.25;;;8.48;;
22786;SDS011;63134;52.020;4.714;2023-02-04T00:45:15;50.95;;;8.38;;
22786;SDS011;63134;52.020;4.714;2023-02-04T00:48:01;59.40;;;8.85;;
22786;SDS011;63134;52.020;4.714;2023-02-04T00:50:47;53.15;;;7.50;;
22786;SDS011;63134;52.020;4.714;2023-02-04T00:53:32;48.15;;;7.70;;
22786;SDS011;63134;52.020;4.714;2023-02-04T00:56:18;57.90;;;7.45;;
22786;SDS011;63134;52.020;4.714;2023-02-04T00:59:03;54.85;;;8.77;;
22786;SDS011;63134;52.020;4.714;2023-02-04T01:01:49;55.97;;;8.70;;
22786;SDS011;63134;52.020;4.714;2023-02-04T01:04:37;57.90;;;8.73;;
22786;SDS011;63134;52.020;4.714;2023-02-04T01:07:23;57.65;;;8.82;;
22786;SDS011;63134;52.020;4.714;2023-02-04T01:10:09;60.83;;;8.48;;
22786;SDS011;63134;52.020;4.714;2023-02-04T01:12:56;50.25;;;7.45;;
22786;SDS011;63134;52.020;4.714;2023-02-04T01:15:42;41.88;;;7.82;;
22786;SDS011;63134;52.020;4.714;2023-02-04T01:18:27;47.95;;;7.13;;
22786;SDS011;63134;52.020;4.714;2023-02-04T01:21:14;50.80;;;7.78;;
22786;SDS011;63134;52.020;4.714;2023-02-04T01:24:03;41.58;;;7.03;;
22786;SDS011;63134;52.020;4.714;2023-02-04T01:26:49;44.25;;;7.50;;
22786;SDS011;63134;52.020;4.714;2023-02-04T01:29:35;52.38;;;8.05;;
22786;SDS011;63134;52.020;4.714;2023-02-04T01:32:20;56.95;;;8.25;;
22786;SDS011;63134;52.020;4.714;2023-02-04T01:35:06;46.92;;;7.90;;
22786;SDS011;63134;52.020;4.714;2023-02-04T01:37:52;44.40;;;6.90;;
22786;SDS011;63134;52.020;4.714;2023-02-04T01:40:41;43.10;;;7.13;;
22786;SDS011;63134;52.020;4.714;2023-02-04T01:43:27;44.65;;;8.00;;
22786;SDS011;63134;52.020;4.714;2023-02-04T01:46:13;54.85;;;8.32;;
22786;SDS011;63134;52.020;4.714;2023-02-04T01:49:00;51.63;;;7.28;;
22786;SDS011;63134;52.020;4.714;2023-02-04T01:51:46;45.28;;;8.05;;
22786;SDS011;63134;52.020;4.714;2023-02-04T01:54:32;47.15;;;8.05;;
22786;SDS011;63134;52.020;4.714;2023-02-04T01:57:17;32.28;;;7.43;;
22786;SDS011;63134;52.020;4.714;2023-02-04T02:00:05;54.38;;;8.43;;
22786;SDS011;63134;52.020;4.714;2023-02-04T02:02:57;54.13;;;8.32;;
22786;SDS011;63134;52.020;4.714;2023-02-04T02:05:45;62.42;;;8.93;;
22786;SDS011;63134;52.020;4.714;2023-02-04T02:08:42;41.13;;;7.72;;
22786;SDS011;63134;52.020;4.714;2023-02-04T02:11:28;42.80;;;8.80;;
22786;SDS011;63134;52.020;4.714;2023-02-04T02:14:16;53.45;;;8.05;;
22786;SDS011;63134;52.020;4.714;2023-02-04T02:17:02;68.97;;;9.95;;
22786;SDS011;63134;52.020;4.714;2023-02-04T02:19:48;48.13;;;8.13;;
22786;SDS011;63134;52.020;4.714;2023-02-04T02:25:53;63.47;;;9.35;;
22786;SDS011;63134;52.020;4.714;2023-02-04T02:28:40;55.10;;;8.63;;
22786;SDS011;63134;52.020;4.714;2023-02-04T02:31:26;62.95;;;9.55;;
22786;SDS011;63134;52.020;4.714;2023-02-04T02:34:14;60.42;;;9.27;;
22786;SDS011;63134;52.020;4.714;2023-02-04T02:37:00;57.38;;;10.05;;
22786;SDS011;63134;52.020;4.714;2023-02-04T02:39:50;52.97;;;8.60;;
22786;SDS011;63134;52.020;4.714;2023-02-04T02:42:36;48.30;;;8.07;;
22786;SDS011;63134;52.020;4.714;2023-02-04T02:45:23;67.93;;;9.23;;
22786;SDS011;63134;52.020;4.714;2023-02-04T02:48:10;50.45;;;9.50;;
22786;SDS011;63134;52.020;4.714;2023-02-04T02:50:56;58.80;;;8.25;;
22786;SDS011;63134;52.020;4.714;2023-02-04T02:53:42;55.03;;;9.50;;
22786;SDS011;63134;52.020;4.714;2023-02-04T02:56:28;65.88;;;10.35;;
22786;SDS011;63134;52.020;4.714;2023-02-04T02:59:16;60.75;;;9.75;;
22786;SDS011;63134;52.020;4.714;2023-02-04T03:02:02;65.40;;;9.20;;
22786;SDS011;63134;52.020;4.714;2023-02-04T03:04:52;48.85;;;8.75;;
22786;SDS011;63134;52.020;4.714;2023-02-04T03:07:44;57.03;;;9.90;;
22786;SDS011;63134;52.020;4.714;2023-02-04T03:10:30;55.03;;;9.13;;
22786;SDS011;63134;52.020;4.714;2023-02-04T03:13:19;62.67;;;8.88;;
22786;SDS011;63134;52.020;4.714;2023-02-04T03:16:06;48.92;;;8.30;;
22786;SDS011;63134;52.020;4.714;2023-02-04T03:18:52;42.58;;;8.35;;
22786;SDS011;63134;52.020;4.714;2023-02-04T03:21:37;59.20;;;9.20;;
22786;SDS011;63134;52.020;4.714;2023-02-04T03:24:25;50.13;;;7.85;;
22786;SDS011;63134;52.020;4.714;2023-02-04T03:27:14;55.60;;;9.45;;
22786;SDS011;63134;52.020;4.714;2023-02-04T03:30:01;47.38;;;7.82;;
22786;SDS011;63134;52.020;4.714;2023-02-04T03:32:46;57.92;;;8.88;;
22786;SDS011;63134;52.020;4.714;2023-02-04T03:35:32;55.03;;;9.02;;
22786;SDS011;63134;52.020;4.714;2023-02-04T03:38:18;55.50;;;8.98;;
22786;SDS011;63134;52.020;4.714;2023-02-04T03:41:04;66.43;;;9.13;;
22786;SDS011;63134;52.020;4.714;2023-02-04T03:43:49;62.88;;;8.88;;
22786;SDS011;63134;52.020;4.714;2023-02-04T03:46:35;51.65;;;8.25;;
22786;SDS011;63134;52.020;4.714;2023-02-04T03:49:21;52.55;;;8.20;;
22786;SDS011;63134;52.020;4.714;2023-02-04T03:52:07;67.50;;;8.48;;
22786;SDS011;63134;52.020;4.714;2023-02-04T03:54:52;54.70;;;8.02;;
22786;SDS011;63134;52.020;4.714;2023-02-04T03:57:47;57.38;;;8.15;;
22786;SDS011;63134;52.020;4.714;2023-02-04T04:00:41;52.05;;;8.30;;
22786;SDS011;63134;52.020;4.714;2023-02-04T04:03:27;77.97;;;9.52;;
22786;SDS011;63134;52.020;4.714;2023-02-04T04:06:13;53.92;;;9.15;;
22786;SDS011;63134;52.020;4.714;2023-02-04T04:08:58;61.60;;;8.63;;
22786;SDS011;63134;52.020;4.714;2023-02-04T04:11:50;56.22;;;8.82;;
22786;SDS011;63134;52.020;4.714;2023-02-04T04:14:36;56.50;;;9.25;;
22786;SDS011;63134;52.020;4.714;2023-02-04T04:17:21;67.82;;;10.25;;
22786;SDS011;63134;52.020;4.714;2023-02-04T04:20:07;50.30;;;7.78;;
22786;SDS011;63134;52.020;4.714;2023-02-04T04:22:53;59.97;;;8.90;;
22786;SDS011;63134;52.020;4.714;2023-02-04T04:25:38;65.68;;;8.88;;
22786;SDS011;63134;52.020;4.714;2023-02-04T04:28:24;72.78;;;10.45;;
22786;SDS011;63134;52.020;4.714;2023-02-04T04:31:09;53.22;;;7.80;;
22786;SDS011;63134;52.020;4.714;2023-02-04T04:33:55;60.85;;;8.27;;
22786;SDS011;63134;52.020;4.714;2023-02-04T04:36:40;67.35;;;8.10;;
22786;SDS011;63134;52.020;4.714;2023-02-04T04:39:28;62.83;;;7.95;;
22786;SDS011;63134;52.020;4.714;2023-02-04T04:42:18;55.03;;;8.00;;
22786;SDS011;63134;52.020;4.714;2023-02-04T04:45:07;55.90;;;9.38;;
22786;SDS011;63134;52.020;4.714;2023-02-04T04:47:54;54.08;;;8.80;;
22786;SDS011;63134;52.020;4.714;2023-02-04T04:50:39;62.55;;;7.72;;
22786;SDS011;63134;52.020;4.714;2023-02-04T04:53:24;64.85;;;8.27;;
22786;SDS011;63134;52.020;4.714;2023-02-04T04:56:10;61.63;;;8.45;;
22786;SDS011;63134;52.020;4.714;2023-02-04T04:58:55;58.65;;;7.55;;
22786;SDS011;63134;52.020;4.714;2023-02-04T05:01:41;48.88;;;8.45;;
22786;SDS011;63134;52.020;4.714;2023-02-04T05:04:26;50.70;;;7.82;;
22786;SDS011;63134;52.020;4.714;2023-02-04T05:07:17;55.97;;;8.15;;
22786;SDS011;63134;52.020;4.714;2023-02-04T05:10:03;41.25;;;7.65;;
22786;SDS011;63134;52.020;4.714;2023-02-04T05:12:48;61.58;;;8.15;;
22786;SDS011;63134;52.020;4.714;2023-02-04T05:15:34;44.78;;;7.70;;
22786;SDS011;63134;52.020;4.714;2023-02-04T05:18:22;61.40;;;8.50;;
22786;SDS011;63134;52.020;4.714;2023-02-04T05:21:07;57.58;;;8.43;;
22786;SDS011;63134;52.020;4.714;2023-02-04T05:23:53;60.10;;;9.35;;
22786;SDS011;63134;52.020;4.714;2023-02-04T05:26:38;44.38;;;7.32;;
22786;SDS011;63134;52.020;4.714;2023-02-04T05:29:24;47.58;;;8.73;;
22786;SDS011;63134;52.020;4.714;2023-02-04T05:32:09;40.95;;;8.13;;
22786;SDS011;63134;52.020;4.714;2023-02-04T05:34:55;51.53;;;8.75;;
22786;SDS011;63134;52.020;4.714;2023-02-04T05:37:40;60.15;;;8.50;;
22786;SDS011;63134;52.020;4.714;2023-02-04T05:40:26;58.03;;;9.07;;
22786;SDS011;63134;52.020;4.714;2023-02-04T05:43:13;66.38;;;8.23;;
22786;SDS011;63134;52.020;4.714;2023-02-04T05:45:59;49.40;;;9.20;;
22786;SDS011;63134;52.020;4.714;2023-02-04T05:48:45;50.33;;;9.23;;
22786;SDS011;63134;52.020;4.714;2023-02-04T05:51:30;43.88;;;8.73;;
22786;SDS011;63134;52.020;4.714;2023-02-04T05:54:16;63.45;;;9.07;;
22786;SDS011;63134;52.020;4.714;2023-02-04T05:57:04;49.03;;;8.43;;
22786;SDS011;63134;52.020;4.714;2023-02-04T05:59:52;46.45;;;8.25;;
22786;SDS011;63134;52.020;4.714;2023-02-04T06:02:38;54.40;;;8.32;;
22786;SDS011;63134;52.020;4.714;2023-02-04T06:05:27;60.00;;;9.15;;
22786;SDS011;63134;52.020;4.714;2023-02-04T06:08:15;52.63;;;8.90;;
22786;SDS011;63134;52.020;4.714;2023-02-04T06:11:00;51.08;;;8.82;;
22786;SDS011;63134;52.020;4.714;2023-02-04T06:13:46;42.58;;;7.97;;
22786;SDS011;63134;52.020;4.714;2023-02-04T06:16:31;63.08;;;10.93;;
22786;SDS011;63134;52.020;4.714;2023-02-04T06:19:20;50.53;;;8.07;;
22786;SDS011;63134;52.020;4.714;2023-02-04T06:22:10;49.25;;;9.23;;
22786;SDS011;63134;52.020;4.714;2023-02-04T06:24:55;64.32;;;9.07;;
22786;SDS011;63134;52.020;4.714;2023-02-04T06:27:41;51.08;;;8.20;;
22786;SDS011;63134;52.020;4.714;2023-02-04T06:30:26;64.47;;;8.95;;
22786;SDS011;63134;52.020;4.714;2023-02-04T06:33:12;52.10;;;9.02;;
22786;SDS011;63134;52.020;4.714;2023-02-04T06:35:57;53.80;;;8.15;;
22786;SDS011;63134;52.020;4.714;2023-02-04T06:38:44;53.08;;;10.05;;
22786;SDS011;63134;52.020;4.714;2023-02-04T06:41:32;59.65;;;8.75;;
22786;SDS011;63134;52.020;4.714;2023-02-04T06:44:18;58.50;;;9.85;;
22786;SDS011;63134;52.020;4.714;2023-02-04T06:47:03;57.60;;;9.00;;
22786;SDS011;63134;52.020;4.714;2023-02-04T06:49:51;50.80;;;9.18;;
22786;SDS011;63134;52.020;4.714;2023-02-04T06:52:37;56.60;;;9.30;;
22786;SDS011;63134;52.020;4.714;2023-02-04T06:55:22;42.92;;;8.32;;
22786;SDS011;63134;52.020;4.714;2023-02-04T06:58:08;55.95;;;9.10;;
22786;SDS011;63134;52.020;4.714;2023-02-04T07:00:53;51.22;;;9.68;;
22786;SDS011;63134;52.020;4.714;2023-02-04T07:03:39;58.90;;;10.00;;
22786;SDS011;63134;52.020;4.714;2023-02-04T07:06:24;60.38;;;9.63;;
22786;SDS011;63134;52.020;4.714;2023-02-04T07:09:10;60.17;;;9.68;;
22786;SDS011;63134;52.020;4.714;2023-02-04T07:11:56;45.60;;;8.65;;
22786;SDS011;63134;52.020;4.714;2023-02-04T07:14:41;52.35;;;8.88;;
22786;SDS011;63134;52.020;4.714;2023-02-04T07:17:29;64.55;;;10.57;;
22786;SDS011;63134;52.020;4.714;2023-02-04T07:20:15;61.25;;;10.68;;
22786;SDS011;63134;52.020;4.714;2023-02-04T07:23:01;55.67;;;10.18;;
22786;SDS011;63134;52.020;4.714;2023-02-04T07:25:46;61.80;;;9.57;;
22786;SDS011;63134;52.020;4.714;2023-02-04T07:28:32;63.10;;;9.80;;
22786;SDS011;63134;52.020;4.714;2023-02-04T07:31:22;62.30;;;10.27;;
22786;SDS011;63134;52.020;4.714;2023-02-04T07:34:08;55.25;;;9.27;;
22786;SDS011;63134;52.020;4.714;2023-02-04T07:36:53;54.72;;;10.20;;
22786;SDS011;63134;52.020;4.714;2023-02-04T07:39:39;54.33;;;9.95;;
22786;SDS011;63134;52.020;4.714;2023-02-04T07:42:25;65.38;;;9.88;;
22786;SDS011;63134;52.020;4.714;2023-02-04T07:45:18;47.60;;;9.10;;
22786;SDS011;63134;52.020;4.714;2023-02-04T07:48:04;54.58;;;10.00;;
22786;SDS011;63134;52.020;4.714;2023-02-04T07:50:50;61.13;;;9.40;;
22786;SDS011;63134;52.020;4.714;2023-02-04T07:53:35;40.83;;;8.90;;
22786;SDS011;63134;52.020;4.714;2023-02-04T07:56:21;48.28;;;8.30;;
22786;SDS011;63134;52.020;4.714;2023-02-04T07:59:06;43.88;;;8.77;;
22786;SDS011;63134;52.020;4.714;2023-02-04T08:01:52;44.13;;;8.93;;
22786;SDS011;63134;52.020;4.714;2023-02-04T08:04:37;49.00;;;10.20;;
22786;SDS011;63134;52.020;4.714;2023-02-04T08:07:23;52.00;;;9.32;;
22786;SDS011;63134;52.020;4.714;2023-02-04T08:10:09;58.78;;;8.60;;
22786;SDS011;63134;52.020;4.714;2023-02-04T08:12:55;49.85;;;9.15;;
22786;SDS011;63134;52.020;4.714;2023-02-04T08:15:40;56.05;;;10.05;;
22786;SDS011;63134;52.020;4.714;2023-02-04T08:18:26;55.45;;;10.45;;
22786;SDS011;63134;52.020;4.714;2023-02-04T08:21:11;44.78;;;8.23;;
22786;SDS011;63134;52.020;4.714;2023-02-04T08:23:57;42.90;;;9.75;;
22786;SDS011;63134;52.020;4.714;2023-02-04T08:26:49;60.10;;;11.05;;
22786;SDS011;63134;52.020;4.714;2023-02-04T08:29:36;48.63;;;9.32;;
22786;SDS011;63134;52.020;4.714;2023-02-04T08:32:21;47.88;;;10.02;;
22786;SDS011;63134;52.020;4.714;2023-02-04T08:35:11;53.13;;;9.13;;
22786;SDS011;63134;52.020;4.714;2023-02-04T08:37:57;53.45;;;9.27;;
22786;SDS011;63134;52.020;4.714;2023-02-04T08:40:42;40.13;;;8.70;;
22786;SDS011;63134;52.020;4.714;2023-02-04T08:43:28;38.70;;;8.40;;
22786;SDS011;63134;52.020;4.714;2023-02-04T08:46:19;50.30;;;9.75;;
22786;SDS011;63134;52.020;4.714;2023-02-04T08:49:07;52.00;;;8.98;;
22786;SDS011;63134;52.020;4.714;2023-02-04T08:51:53;47.08;;;9.05;;
22786;SDS011;63134;52.020;4.714;2023-02-04T08:54:38;42.72;;;9.23;;
22786;SDS011;63134;52.020;4.714;2023-02-04T08:57:24;52.83;;;9.20;;
22786;SDS011;63134;52.020;4.714;2023-02-04T09:00:10;50.03;;;9.98;;
22786;SDS011;63134;52.020;4.714;2023-02-04T09:02:56;40.42;;;7.80;;
22786;SDS011;63134;52.020;4.714;2023-02-04T09:05:41;48.03;;;9.15;;
22786;SDS011;63134;52.020;4.714;2023-02-04T09:08:27;49.53;;;9.32;;
22786;SDS011;63134;52.020;4.714;2023-02-04T09:11:12;39.65;;;9.00;;
22786;SDS011;63134;52.020;4.714;2023-02-04T09:13:58;52.05;;;9.52;;
22786;SDS011;63134;52.020;4.714;2023-02-04T09:16:46;44.25;;;9.45;;
22786;SDS011;63134;52.020;4.714;2023-02-04T09:19:32;45.85;;;9.80;;
22786;SDS011;63134;52.020;4.714;2023-02-04T09:22:19;41.00;;;8.60;;
22786;SDS011;63134;52.020;4.714;2023-02-04T09:25:04;43.20;;;8.23;;
22786;SDS011;63134;52.020;4.714;2023-02-04T09:27:52;50.25;;;9.73;;
22786;SDS011;63134;52.020;4.714;2023-02-04T09:30:38;49.08;;;10.73;;
22786;SDS011;63134;52.020;4.714;2023-02-04T09:33:25;45.88;;;10.23;;
22786;SDS011;63134;52.020;4.714;2023-02-04T09:36:11;42.00;;;8.80;;
22786;SDS011;63134;52.020;4.714;2023-02-04T09:38:56;37.80;;;8.63;;
22786;SDS011;63134;52.020;4.714;2023-02-04T09:41:42;31.85;;;8.73;;
22786;SDS011;63134;52.020;4.714;2023-02-04T09:44:28;50.30;;;9.43;;
22786;SDS011;63134;52.020;4.714;2023-02-04T09:47:13;41.17;;;9.57;;
22786;SDS011;63134;52.020;4.714;2023-02-04T09:49:59;42.95;;;10.73;;
22786;SDS011;63134;52.020;4.714;2023-02-04T09:52:45;48.05;;;9.20;;
22786;SDS011;63134;52.020;4.714;2023-02-04T09:55:39;39.22;;;9.35;;
22786;SDS011;63134;52.020;4.714;2023-02-04T09:58:28;45.83;;;8.45;;
22786;SDS011;63134;52.020;4.714;2023-02-04T10:01:20;40.85;;;8.95;;
22786;SDS011;63134;52.020;4.714;2023-02-04T10:04:10;43.70;;;9.07;;
22786;SDS011;63134;52.020;4.714;2023-02-04T10:06:58;40.70;;;9.98;;
22786;SDS011;63134;52.020;4.714;2023-02-04T10:09:45;43.10;;;9.38;;
22786;SDS011;63134;52.020;4.714;2023-02-04T10:12:32;45.00;;;9.25;;
22786;SDS011;63134;52.020;4.714;2023-02-04T10:15:18;43.17;;;8.40;;
22786;SDS011;63134;52.020;4.714;2023-02-04T10:18:05;39.42;;;7.35;;
22786;SDS011;63134;52.020;4.714;2023-02-04T10:20:56;44.28;;;8.40;;
22786;SDS011;63134;52.020;4.714;2023-02-04T10:23:56;45.90;;;7.88;;
22786;SDS011;63134;52.020;4.714;2023-02-04T10:26:43;35.70;;;7.93;;
22786;SDS011;63134;52.020;4.714;2023-02-04T10:29:28;41.33;;;8.60;;
22786;SDS011;63134;52.020;4.714;2023-02-04T10:32:27;40.17;;;8.32;;
22786;SDS011;63134;52.020;4.714;2023-02-04T10:35:15;47.45;;;8.30;;
22786;SDS011;63134;52.020;4.714;2023-02-04T10:38:05;45.00;;;8.13;;
22786;SDS011;63134;52.020;4.714;2023-02-04T10:41:03;47.08;;;9.10;;
22786;SDS011;63134;52.020;4.714;2023-02-04T10:44:11;40.10;;;8.40;;
22786;SDS011;63134;52.020;4.714;2023-02-04T10:47:17;51.75;;;13.35;;
22786;SDS011;63134;52.020;4.714;2023-02-04T10:50:13;53.63;;;11.98;;
22786;SDS011;63134;52.020;4.714;2023-02-04T10:53:02;54.00;;;10.93;;
22786;SDS011;63134;52.020;4.714;2023-02-04T10:56:16;47.45;;;9.45;;
22786;SDS011;63134;52.020;4.714;2023-02-04T10:59:04;36.30;;;9.80;;
22786;SDS011;63134;52.020;4.714;2023-02-04T11:02:17;50.88;;;8.52;;
22786;SDS011;63134;52.020;4.714;2023-02-04T11:05:36;47.90;;;8.40;;
22786;SDS011;63134;52.020;4.714;2023-02-04T11:08:23;40.40;;;7.47;;
22786;SDS011;63134;52.020;4.714;2023-02-04T11:11:19;38.20;;;8.20;;
22786;SDS011;63134;52.020;4.714;2023-02-04T11:17:29;39.35;;;7.20;;
22786;SDS011;63134;52.020;4.714;2023-02-04T11:20:29;30.83;;;7.57;;
22786;SDS011;63134;52.020;4.714;2023-02-04T11:26:11;26.70;;;6.80;;
22786;SDS011;63134;52.020;4.714;2023-02-04T11:34:42;26.33;;;7.13;;
22786;SDS011;63134;52.020;4.714;2023-02-04T11:37:34;36.72;;;7.60;;
22786;SDS011;63134;52.020;4.714;2023-02-04T11:40:28;21.83;;;6.50;;
22786;SDS011;63134;52.020;4.714;2023-02-04T11:43:15;30.90;;;6.97;;
22786;SDS011;63134;52.020;4.714;2023-02-04T11:46:04;35.28;;;6.53;;
22786;SDS011;63134;52.020;4.714;2023-02-04T11:49:00;26.90;;;6.20;;
22786;SDS011;63134;52.020;4.714;2023-02-04T11:51:45;31.55;;;6.93;;
22786;SDS011;63134;52.020;4.714;2023-02-04T11:54:31;26.50;;;6.65;;
22786;SDS011;63134;52.020;4.714;2023-02-04T11:57:17;26.60;;;7.38;;
22786;SDS011;63134;52.020;4.714;2023-02-04T12:00:02;35.50;;;6.80;;
22786;SDS011;63134;52.020;4.714;2023-02-04T12:02:49;38.90;;;7.18;;
22786;SDS011;63134;52.020;4.714;2023-02-04T12:05:41;33.25;;;6.70;;
22786;SDS011;63134;52.020;4.714;2023-02-04T12:08:32;24.05;;;5.60;;
22786;SDS011;63134;52.020;4.714;2023-02-04T12:11:24;25.08;;;6.25;;
22786;SDS011;63134;52.020;4.714;2023-02-04T12:14:15;22.92;;;6.75;;
22786;SDS011;63134;52.020;4.714;2023-02-04T12:17:15;22.60;;;5.65;;
22786;SDS011;63134;52.020;4.714;2023-02-04T12:20:01;18.40;;;5.88;;
22786;SDS011;63134;52.020;4.714;2023-02-04T12:22:48;27.48;;;6.03;;
22786;SDS011;63134;52.020;4.714;2023-02-04T12:25:34;21.38;;;5.97;;
22786;SDS011;63134;52.020;4.714;2023-02-04T12:28:27;30.48;;;6.30;;
22786;SDS011;63134;52.020;4.714;2023-02-04T12:31:13;33.45;;;6.22;;
22786;SDS011;63134;52.020;4.714;2023-02-04T12:33:59;27.83;;;6.68;;
22786;SDS011;63134;52.020;4.714;2023-02-04T12:36:44;34.55;;;6.63;;
22786;SDS011;63134;52.020;4.714;2023-02-04T12:39:30;33.28;;;7.05;;
22786;SDS011;63134;52.020;4.714;2023-02-04T12:42:16;29.38;;;7.35;;
22786;SDS011;63134;52.020;4.714;2023-02-04T12:45:02;27.60;;;6.97;;
22786;SDS011;63134;52.020;4.714;2023-02-04T12:47:48;21.52;;;6.65;;
22786;SDS011;63134;52.020;4.714;2023-02-04T12:50:33;35.70;;;7.00;;
22786;SDS011;63134;52.020;4.714;2023-02-04T12:53:19;29.10;;;6.80;;
22786;SDS011;63134;52.020;4.714;2023-02-04T12:56:04;24.38;;;7.90;;
22786;SDS011;63134;52.020;4.714;2023-02-04T12:58:50;32.08;;;7.50;;
22786;SDS011;63134;52.020;4.714;2023-02-04T13:01:36;30.27;;;8.88;;
22786;SDS011;63134;52.020;4.714;2023-02-04T13:04:22;23.00;;;6.90;;
22786;SDS011;63134;52.020;4.714;2023-02-04T13:07:08;30.00;;;7.13;;
22786;SDS011;63134;52.020;4.714;2023-02-04T13:09:59;25.80;;;6.28;;
22786;SDS011;63134;52.020;4.714;2023-02-04T13:12:45;21.70;;;6.03;;
22786;SDS011;63134;52.020;4.714;2023-02-04T13:15:31;25.52;;;5.40;;
22786;SDS011;63134;52.020;4.714;2023-02-04T13:18:20;30.13;;;6.28;;
22786;SDS011;63134;52.020;4.714;2023-02-04T13:21:06;26.25;;;6.30;;
22786;SDS011;63134;52.020;4.714;2023-02-04T13:23:52;25.90;;;6.50;;
22786;SDS011;63134;52.020;4.714;2023-02-04T13:26:37;30.27;;;6.68;;
22786;SDS011;63134;52.020;4.714;2023-02-04T13:29:23;22.67;;;6.18;;
22786;SDS011;63134;52.020;4.714;2023-02-04T13:32:08;25.70;;;5.93;;
22786;SDS011;63134;52.020;4.714;2023-02-04T13:34:54;28.88;;;7.05;;
22786;SDS011;63134;52.020;4.714;2023-02-04T13:37:40;28.00;;;6.55;;
22786;SDS011;63134;52.020;4.714;2023-02-04T13:40:26;26.20;;;6.40;;
22786;SDS011;63134;52.020;4.714;2023-02-04T13:43:11;28.10;;;7.05;;
22786;SDS011;63134;52.020;4.714;2023-02-04T13:45:57;27.45;;;7.13;;
22786;SDS011;63134;52.020;4.714;2023-02-04T13:48:42;26.52;;;7.30;;
22786;SDS011;63134;52.020;4.714;2023-02-04T13:51:31;19.23;;;6.00;;
22786;SDS011;63134;52.020;4.714;2023-02-04T13:54:19;25.55;;;7.07;;
22786;SDS011;63134;52.020;4.714;2023-02-04T13:57:07;24.83;;;6.00;;
22786;SDS011;63134;52.020;4.714;2023-02-04T13:59:53;27.92;;;6.93;;
22786;SDS011;63134;52.020;4.714;2023-02-04T14:02:39;29.63;;;7.53;;
22786;SDS011;63134;52.020;4.714;2023-02-04T14:05:24;33.40;;;7.53;;
22786;SDS011;63134;52.020;4.714;2023-02-04T14:08:10;42.25;;;7.20;;
22786;SDS011;63134;52.020;4.714;2023-02-04T14:10:55;28.42;;;7.07;;
22786;SDS011;63134;52.020;4.714;2023-02-04T14:13:41;25.00;;;6.43;;
22786;SDS011;63134;52.020;4.714;2023-02-04T14:16:29;42.28;;;9.30;;
22786;SDS011;63134;52.020;4.714;2023-02-04T14:19:21;40.42;;;9.65;;
22786;SDS011;63134;52.020;4.714;2023-02-04T14:22:11;37.83;;;9.68;;
22786;SDS011;63134;52.020;4.714;2023-02-04T14:24:57;44.05;;;9.40;;
22786;SDS011;63134;52.020;4.714;2023-02-04T14:27:43;41.17;;;9.20;;
22786;SDS011;63134;52.020;4.714;2023-02-04T14:30:28;37.30;;;9.85;;
22786;SDS011;63134;52.020;4.714;2023-02-04T14:33:15;41.85;;;11.25;;
22786;SDS011;63134;52.020;4.714;2023-02-04T14:36:05;43.05;;;11.35;;
22786;SDS011;63134;52.020;4.714;2023-02-04T14:38:51;39.42;;;10.93;;
22786;SDS011;63134;52.020;4.714;2023-02-04T14:41:36;43.28;;;10.88;;
22786;SDS011;63134;52.020;4.714;2023-02-04T14:44:22;38.00;;;9.60;;
22786;SDS011;63134;52.020;4.714;2023-02-04T14:47:08;39.10;;;9.70;;
22786;SDS011;63134;52.020;4.714;2023-02-04T14:49:56;43.10;;;9.55;;
22786;SDS011;63134;52.020;4.714;2023-02-04T14:52:41;44.65;;;9.48;;
22786;SDS011;63134;52.020;4.714;2023-02-04T14:55:27;28.95;;;8.82;;
22786;SDS011;63134;52.020;4.714;2023-02-04T14:58:13;39.90;;;9.57;;
22786;SDS011;63134;52.020;4.714;2023-02-04T15:00:58;37.25;;;10.15;;
22786;SDS011;63134;52.020;4.714;2023-02-04T15:03:44;35.63;;;10.10;;
22786;SDS011;63134;52.020;4.714;2023-02-04T15:06:29;36.97;;;9.95;;
22786;SDS011;63134;52.020;4.714;2023-02-04T15:09:15;39.15;;;10.52;;
22786;SDS011;63134;52.020;4.714;2023-02-04T15:12:00;37.65;;;9.63;;
22786;SDS011;63134;52.020;4.714;2023-02-04T15:14:46;37.67;;;9.63;;
22786;SDS011;63134;52.020;4.714;2023-02-04T15:17:31;31.33;;;10.18;;
22786;SDS011;63134;52.020;4.714;2023-02-04T15:20:17;35.03;;;9.85;;
22786;SDS011;63134;52.020;4.714;2023-02-04T15:23:08;39.30;;;10.15;;
22786;SDS011;63134;52.020;4.714;2023-02-04T15:25:56;39.08;;;11.38;;
22786;SDS011;63134;52.020;4.714;2023-02-04T15:28:42;37.15;;;9.93;;
22786;SDS011;63134;52.020;4.714;2023-02-04T15:31:28;32.70;;;10.88;;
22786;SDS011;63134;52.020;4.714;2023-02-04T15:34:14;33.22;;;9.95;;
22786;SDS011;63134;52.020;4.714;2023-02-04T15:36:59;43.22;;;10.82;;
22786;SDS011;63134;52.020;4.714;2023-02-04T15:39:45;31.38;;;10.65;;
22786;SDS011;63134;52.020;4.714;2023-02-04T15:42:31;35.50;;;10.35;;
22786;SDS011;63134;52.020;4.714;2023-02-04T15:45:19;42.83;;;11.48;;
22786;SDS011;63134;52.020;4.714;2023-02-04T15:48:04;38.13;;;9.95;;
22786;SDS011;63134;52.020;4.714;2023-02-04T15:50:50;36.20;;;9.55;;
22786;SDS011;63134;52.020;4.714;2023-02-04T15:53:35;46.20;;;10.68;;
22786;SDS011;63134;52.020;4.714;2023-02-04T15:56:22;30.23;;;10.07;;
22786;SDS011;63134;52.020;4.714;2023-02-04T15:59:07;41.65;;;10.65;;
22786;SDS011;63134;52.020;4.714;2023-02-04T16:01:53;35.95;;;10.45;;
22786;SDS011;63134;52.020;4.714;2023-02-04T16:04:38;34.33;;;10.25;;
22786;SDS011;63134;52.020;4.714;2023-02-04T16:07:25;38.22;;;10.38;;
22786;SDS011;63134;52.020;4.714;2023-02-04T16:10:11;40.65;;;9.40;;
22786;SDS011;63134;52.020;4.714;2023-02-04T16:13:01;37.80;;;10.50;;
22786;SDS011;63134;52.020;4.714;2023-02-04T16:15:47;29.23;;;9.75;;
22786;SDS011;63134;52.020;4.714;2023-02-04T16:18:34;37.38;;;8.18;;
22786;SDS011;63134;52.020;4.714;2023-02-04T16:21:20;25.98;;;7.35;;
22786;SDS011;63134;52.020;4.714;2023-02-04T16:24:11;29.95;;;8.35;;
22786;SDS011;63134;52.020;4.714;2023-02-04T16:26:56;29.10;;;7.80;;
22786;SDS011;63134;52.020;4.714;2023-02-04T16:29:48;29.83;;;8.05;;
22786;SDS011;63134;52.020;4.714;2023-02-04T16:32:37;34.95;;;9.77;;
22786;SDS011;63134;52.020;4.714;2023-02-04T16:35:23;35.47;;;8.68;;
22786;SDS011;63134;52.020;4.714;2023-02-04T16:38:11;31.20;;;7.65;;
22786;SDS011;63134;52.020;4.714;2023-02-04T16:41:05;28.90;;;8.27;;
22786;SDS011;63134;52.020;4.714;2023-02-04T16:43:51;26.10;;;8.45;;
22786;SDS011;63134;52.020;4.714;2023-02-04T16:46:37;28.73;;;9.73;;